createdAt,value
2018-12-07T00:00:54.861Z,1013.75
2018-12-07T00:01:54.885Z,1013.70
2018-12-07T00:02:54.904Z,1013.69
2018-12-07T00:03:54.926Z,1013.65
2018-12-07T00:04:54.951Z,1013.66
2018-12-07T00:05:54.978Z,1013.65
2018-12-07T00:06:54.997Z,1013.70
2018-12-07T00:07:55.018Z,1013.66
2018-12-07T00:08:55.039Z,1013.53
2018-12-07T00:09:55.062Z,1013.53
2018-12-07T00:10:55.085Z,1013.55
2018-12-07T00:11:55.116Z,1013.54
2018-12-07T00:12:55.134Z,1013.57
2018-12-07T00:13:55.151Z,1013.53
2018-12-07T00:14:55.172Z,1013.49
2018-12-07T00:15:55.195Z,1013.44
2018-12-07T00:16:55.219Z,1013.48
2018-12-07T00:17:55.239Z,1013.40
2018-12-07T00:18:55.264Z,1013.35
2018-12-07T00:19:55.293Z,1013.37
2018-12-07T00:20:55.306Z,1013.32
2018-12-07T00:21:55.328Z,1013.33
2018-12-07T00:22:55.354Z,1013.37
2018-12-07T00:23:55.374Z,1013.36
2018-12-07T00:24:55.396Z,1013.30
2018-12-07T00:25:55.418Z,1013.26
2018-12-07T00:26:55.442Z,1013.28
2018-12-07T00:27:55.466Z,1013.21
2018-12-07T00:28:55.483Z,1013.19
2018-12-07T00:29:55.506Z,1013.20
2018-12-07T00:30:55.527Z,1013.15
2018-12-07T00:31:55.552Z,1013.15
2018-12-07T00:32:55.573Z,1013.23
2018-12-07T00:33:55.599Z,1013.16
2018-12-07T00:34:55.616Z,1013.20
2018-12-07T00:35:55.640Z,1013.20
2018-12-07T00:36:55.662Z,1013.24
2018-12-07T00:37:55.685Z,1013.26
2018-12-07T00:38:55.707Z,1013.23
2018-12-07T00:39:55.730Z,1013.14
2018-12-07T00:40:55.750Z,1013.17
2018-12-07T00:41:55.775Z,1013.15
2018-12-07T00:42:55.801Z,1013.11
2018-12-07T00:43:55.824Z,1013.13
2018-12-07T00:44:55.838Z,1013.05
2018-12-07T00:45:55.864Z,1013.09
2018-12-07T00:46:55.884Z,1013.04
2018-12-07T00:47:55.906Z,1013.07
2018-12-07T00:48:55.929Z,1013.06
2018-12-07T00:49:55.951Z,1013.03
2018-12-07T00:50:55.973Z,1013.10
2018-12-07T00:51:55.996Z,1013.07
2018-12-07T00:52:56.016Z,1013.05
2018-12-07T00:53:56.043Z,1013.06
2018-12-07T00:54:56.063Z,1013.06
2018-12-07T00:55:56.083Z,1013.08
2018-12-07T00:56:56.106Z,1012.99
2018-12-07T00:57:56.132Z,1013.08
2018-12-07T00:58:56.216Z,1013.04
2018-12-07T00:59:56.173Z,1012.98
2018-12-07T01:00:56.196Z,1013.01
2018-12-07T01:01:56.217Z,1012.97
2018-12-07T01:02:56.242Z,1012.95
2018-12-07T01:03:56.267Z,1012.94
2018-12-07T01:04:56.285Z,1012.91
2018-12-07T01:05:56.306Z,1012.99
2018-12-07T01:06:56.331Z,1012.87
2018-12-07T01:07:56.351Z,1012.94
2018-12-07T01:08:56.374Z,1012.92
2018-12-07T01:09:56.397Z,1012.91
2018-12-07T01:10:56.419Z,1012.90
2018-12-07T01:11:56.441Z,1012.82
2018-12-07T01:12:56.461Z,1012.83
2018-12-07T01:13:56.487Z,1012.87
2018-12-07T01:14:56.508Z,1012.85
2018-12-07T01:15:56.529Z,1012.77
2018-12-07T01:16:56.553Z,1012.71
2018-12-07T01:17:56.573Z,1012.66
2018-12-07T01:18:56.602Z,1012.67
2018-12-07T01:19:56.617Z,1012.57
2018-12-07T01:20:56.641Z,1012.39
2018-12-07T01:21:56.665Z,1012.54
2018-12-07T01:22:56.687Z,1012.49
2018-12-07T01:23:56.707Z,1012.49
2018-12-07T01:24:56.729Z,1012.47
2018-12-07T01:25:56.753Z,1012.50
2018-12-07T01:26:56.775Z,1012.48
2018-12-07T01:27:56.795Z,1012.46
2018-12-07T01:28:56.822Z,1012.48
2018-12-07T01:29:56.845Z,1012.48
2018-12-07T01:30:56.865Z,1012.49
2018-12-07T01:31:56.885Z,1012.47
2018-12-07T01:32:56.908Z,1012.45
2018-12-07T01:33:56.932Z,1012.42
2018-12-07T01:34:56.952Z,1012.48
2018-12-07T01:35:56.978Z,1012.50
2018-12-07T01:36:56.997Z,1012.39
2018-12-07T01:37:57.021Z,1012.38
2018-12-07T01:38:57.042Z,1012.33
2018-12-07T01:39:57.067Z,1012.32
2018-12-07T01:40:57.089Z,1012.30
2018-12-07T01:41:57.110Z,1012.26
2018-12-07T01:42:57.130Z,1012.19
2018-12-07T01:43:57.153Z,1012.19
2018-12-07T01:44:57.180Z,1012.15
2018-12-07T01:45:57.205Z,1012.08
2018-12-07T01:46:57.220Z,1012.10
2018-12-07T01:47:57.311Z,1011.99
2018-12-07T01:48:57.265Z,1012.06
2018-12-07T01:49:57.287Z,1012.01
2018-12-07T01:50:57.313Z,1012.01
2018-12-07T01:51:57.332Z,1011.96
2018-12-07T01:52:57.354Z,1011.93
2018-12-07T01:53:57.378Z,1011.92
2018-12-07T01:54:57.400Z,1011.96
2018-12-07T01:55:57.421Z,1011.93
2018-12-07T01:56:57.443Z,1011.86
2018-12-07T01:57:57.469Z,1011.93
2018-12-07T01:58:57.487Z,1011.85
2018-12-07T01:59:57.511Z,1011.85
2018-12-07T02:00:57.531Z,1011.81
2018-12-07T02:01:57.557Z,1011.80
2018-12-07T02:02:57.576Z,1011.76
2018-12-07T02:03:57.598Z,1011.83
2018-12-07T02:04:57.623Z,1011.78
2018-12-07T02:05:57.643Z,1011.77
2018-12-07T02:06:57.665Z,1011.76
2018-12-07T02:07:57.691Z,1011.80
2018-12-07T02:08:57.714Z,1011.77
2018-12-07T02:09:57.732Z,1011.80
2018-12-07T02:10:57.754Z,1011.78
2018-12-07T02:11:57.779Z,1011.72
2018-12-07T02:12:57.799Z,1011.75
2018-12-07T02:13:57.825Z,1011.68
2018-12-07T02:14:57.895Z,1011.70
2018-12-07T02:15:57.867Z,1011.66
2018-12-07T02:16:57.887Z,1011.67
2018-12-07T02:17:57.913Z,1011.65
2018-12-07T02:18:57.933Z,1011.70
2018-12-07T02:19:57.954Z,1011.66
2018-12-07T02:20:57.977Z,1011.66
2018-12-07T02:21:57.999Z,1011.61
2018-12-07T02:22:58.023Z,1011.66
2018-12-07T02:23:58.047Z,1011.70
2018-12-07T02:24:58.066Z,1011.69
2018-12-07T02:25:58.092Z,1011.68
2018-12-07T02:26:58.110Z,1011.67
2018-12-07T02:27:58.132Z,1011.63
2018-12-07T02:28:58.155Z,1011.65
2018-12-07T02:29:58.178Z,1011.63
2018-12-07T02:30:58.199Z,1011.66
2018-12-07T02:31:58.224Z,1011.67
2018-12-07T02:32:58.249Z,1011.67
2018-12-07T02:33:58.270Z,1011.63
2018-12-07T02:34:58.293Z,1011.60
2018-12-07T02:35:58.312Z,1011.63
2018-12-07T02:36:58.337Z,1011.61
2018-12-07T02:37:58.356Z,1011.64
2018-12-07T02:38:58.377Z,1011.59
2018-12-07T02:39:58.402Z,1011.54
2018-12-07T02:40:58.422Z,1011.56
2018-12-07T02:41:58.445Z,1011.55
2018-12-07T02:42:58.467Z,1011.55
2018-12-07T02:43:58.488Z,1011.58
2018-12-07T02:44:58.513Z,1011.58
2018-12-07T02:45:58.535Z,1011.51
2018-12-07T02:46:58.555Z,1011.57
2018-12-07T02:47:58.578Z,1011.49
2018-12-07T02:48:58.601Z,1011.54
2018-12-07T02:49:58.621Z,1011.44
2018-12-07T02:50:58.652Z,1011.45
2018-12-07T02:51:58.667Z,1011.40
2018-12-07T02:52:58.688Z,1011.44
2018-12-07T02:53:58.711Z,1011.43
2018-12-07T02:54:58.743Z,1011.40
2018-12-07T02:55:58.756Z,1011.35
2018-12-07T02:56:58.776Z,1011.27
2018-12-07T02:57:58.799Z,1011.22
2018-12-07T02:58:58.821Z,1011.23
2018-12-07T02:59:58.844Z,1011.18
2018-12-07T03:00:58.868Z,1011.17
2018-12-07T03:01:58.895Z,1011.18
2018-12-07T03:02:58.912Z,1011.14
2018-12-07T03:03:58.932Z,1011.04
2018-12-07T03:04:58.961Z,1011.14
2018-12-07T03:05:58.980Z,1011.00
2018-12-07T03:06:59.004Z,1011.04
2018-12-07T03:07:59.021Z,1011.05
2018-12-07T03:08:59.044Z,1010.90
2018-12-07T03:09:59.067Z,1010.91
2018-12-07T03:10:59.088Z,1010.91
2018-12-07T03:11:59.111Z,1010.83
2018-12-07T03:12:59.143Z,1010.88
2018-12-07T03:13:59.157Z,1010.83
2018-12-07T03:14:59.177Z,1010.82
2018-12-07T03:15:59.200Z,1010.76
2018-12-07T03:16:59.229Z,1010.71
2018-12-07T03:17:59.250Z,1010.70
2018-12-07T03:18:59.268Z,1010.62
2018-12-07T03:19:59.289Z,1010.61
2018-12-07T03:20:59.313Z,1010.57
2018-12-07T03:21:59.333Z,1010.53
2018-12-07T03:22:59.360Z,1010.58
2018-12-07T03:23:59.381Z,1010.49
2018-12-07T03:24:59.403Z,1010.58
2018-12-07T03:25:59.424Z,1010.46
2018-12-07T03:26:59.445Z,1010.48
2018-12-07T03:27:59.465Z,1010.47
2018-12-07T03:28:59.489Z,1010.40
2018-12-07T03:29:59.517Z,1010.36
